createdAt,value
2022-10-20T00:01:54.759Z,62.59
2022-10-20T00:04:26.924Z,62.52
2022-10-20T00:06:59.150Z,62.53
2022-10-20T00:09:31.042Z,62.43
2022-10-20T00:12:03.008Z,62.30
2022-10-20T00:14:34.988Z,62.07
2022-10-20T00:17:06.970Z,61.78
2022-10-20T00:19:38.773Z,61.73
2022-10-20T00:22:10.935Z,61.64
2022-10-20T00:24:42.886Z,61.86
2022-10-20T00:27:14.965Z,61.96
2022-10-20T00:29:48.905Z,61.88
2022-10-20T00:32:21.805Z,61.57
2022-10-20T00:34:53.914Z,61.72
2022-10-20T00:37:26.438Z,61.59
2022-10-20T00:39:58.329Z,61.66
2022-10-20T00:42:30.311Z,61.58
2022-10-20T00:45:03.491Z,61.57
2022-10-20T00:47:42.109Z,61.74
2022-10-20T00:50:17.500Z,62.04
2022-10-20T00:52:50.450Z,62.04
2022-10-20T00:55:26.443Z,61.95
2022-10-20T00:58:01.134Z,62.16
2022-10-20T01:00:33.831Z,61.83
2022-10-20T01:03:08.749Z,61.68
2022-10-20T01:05:40.713Z,61.79
2022-10-20T01:08:12.817Z,62.01
2022-10-20T01:10:53.278Z,61.77
2022-10-20T01:13:37.995Z,61.83
2022-10-20T01:16:17.860Z,61.62
2022-10-20T01:19:02.003Z,61.86
2022-10-20T01:22:09.988Z,61.83
2022-10-20T01:24:55.789Z,62.01
2022-10-20T01:27:34.725Z,62.09
2022-10-20T01:30:13.727Z,61.80
2022-10-20T01:32:56.253Z,61.84
2022-10-20T01:35:39.369Z,61.71
2022-10-20T01:38:22.313Z,61.76
2022-10-20T01:41:00.964Z,61.74
2022-10-20T01:43:36.562Z,61.65
2022-10-20T01:46:11.413Z,60.94
2022-10-20T01:48:43.927Z,60.99
2022-10-20T01:51:16.679Z,61.14
2022-10-20T01:53:48.623Z,61.02
2022-10-20T01:56:27.441Z,60.89
2022-10-20T01:59:20.157Z,60.87
2022-10-20T02:02:12.915Z,60.96
2022-10-20T02:04:55.009Z,60.98
2022-10-20T02:07:30.583Z,60.83
2022-10-20T02:10:10.865Z,60.72
2022-10-20T02:12:46.643Z,60.71
2022-10-20T02:15:24.464Z,60.93
2022-10-20T02:18:01.044Z,61.20
2022-10-20T02:20:35.664Z,61.35
2022-10-20T02:23:07.886Z,61.65
2022-10-20T02:25:41.608Z,61.58
2022-10-20T02:28:15.952Z,61.70
2022-10-20T02:30:48.926Z,61.94
2022-10-20T02:33:22.032Z,61.69
2022-10-20T02:36:00.166Z,61.62
2022-10-20T02:38:32.268Z,61.69
2022-10-20T02:41:04.368Z,61.52
2022-10-20T02:43:36.903Z,61.76
2022-10-20T02:46:09.100Z,61.83
2022-10-20T02:48:41.283Z,61.74
2022-10-20T02:51:13.378Z,62.09
2022-10-20T02:53:46.490Z,62.02
2022-10-20T02:56:18.840Z,62.10
2022-10-20T02:58:51.205Z,62.04
2022-10-20T03:01:24.947Z,62.10
2022-10-20T03:03:59.872Z,62.24
2022-10-20T03:06:31.920Z,62.36
2022-10-20T03:09:03.929Z,62.48
2022-10-20T03:11:35.966Z,62.51
2022-10-20T03:14:08.388Z,62.37
2022-10-20T03:16:40.654Z,62.36
2022-10-20T03:19:12.559Z,62.04
2022-10-20T03:21:44.684Z,62.19
2022-10-20T03:24:16.741Z,62.16
2022-10-20T03:26:48.947Z,62.14
2022-10-20T03:29:21.051Z,62.10
2022-10-20T03:31:52.877Z,62.31
2022-10-20T03:34:25.504Z,62.31
2022-10-20T03:36:57.364Z,62.28
2022-10-20T03:39:30.169Z,62.38
2022-10-20T03:42:02.197Z,62.49
2022-10-20T03:44:34.635Z,62.62
2022-10-20T03:47:06.650Z,62.80
2022-10-20T03:49:38.523Z,62.71
2022-10-20T03:52:10.533Z,62.90
2022-10-20T03:54:42.549Z,62.91
2022-10-20T03:57:14.343Z,63.25
2022-10-20T03:59:46.513Z,63.40
2022-10-20T04:02:31.141Z,63.35
2022-10-20T04:05:03.260Z,63.24
2022-10-20T04:07:35.347Z,63.06
2022-10-20T04:10:08.657Z,62.97
2022-10-20T04:12:40.687Z,62.75
2022-10-20T04:15:13.589Z,62.92
2022-10-20T04:17:45.453Z,62.88
2022-10-20T04:20:18.361Z,62.83
2022-10-20T04:22:50.499Z,62.88
2022-10-20T04:25:22.833Z,63.04
2022-10-20T04:27:54.746Z,63.02
2022-10-20T04:30:26.709Z,63.03
2022-10-20T04:32:58.644Z,62.75
2022-10-20T04:35:30.508Z,62.67
2022-10-20T04:38:02.403Z,62.64
2022-10-20T04:40:34.549Z,62.79
2022-10-20T04:43:07.005Z,62.82
2022-10-20T04:45:39.578Z,62.51
2022-10-20T04:48:11.765Z,62.34
2022-10-20T04:50:43.773Z,62.32
2022-10-20T04:53:17.172Z,62.23
2022-10-20T04:55:56.890Z,61.94
2022-10-20T04:58:28.905Z,61.66
2022-10-20T05:01:05.107Z,61.78
2022-10-20T05:03:37.919Z,61.55
2022-10-20T05:06:15.401Z,61.36
2022-10-20T05:08:51.604Z,61.28
2022-10-20T05:11:26.473Z,61.19
2022-10-20T05:13:58.888Z,61.25
2022-10-20T05:16:31.230Z,61.44
2022-10-20T05:19:03.115Z,61.41
2022-10-20T05:21:35.168Z,61.58
2022-10-20T05:24:08.362Z,61.76
2022-10-20T05:26:40.256Z,62.03
2022-10-20T05:29:13.670Z,62.10
2022-10-20T05:31:46.402Z,62.20
2022-10-20T05:34:18.272Z,62.29
2022-10-20T05:36:53.353Z,62.39
2022-10-20T05:39:25.408Z,62.40
2022-10-20T05:41:57.346Z,62.60
2022-10-20T05:44:29.457Z,62.63
2022-10-20T05:47:02.540Z,62.66
2022-10-20T05:49:34.890Z,62.49
2022-10-20T05:52:07.261Z,62.67
2022-10-20T05:54:39.196Z,62.97
2022-10-20T05:57:11.177Z,62.80
2022-10-20T05:59:45.076Z,62.88
2022-10-20T06:02:17.056Z,63.06
2022-10-20T06:04:49.047Z,63.14
2022-10-20T06:07:20.997Z,63.31
2022-10-20T06:09:53.435Z,63.55
2022-10-20T06:12:25.854Z,63.56
2022-10-20T06:14:57.891Z,63.53
2022-10-20T06:17:30.144Z,63.52
2022-10-20T06:20:02.497Z,63.54
2022-10-20T06:22:34.725Z,63.49
2022-10-20T06:25:08.916Z,63.69
2022-10-20T06:27:42.530Z,63.81
2022-10-20T06:30:14.847Z,64.00
2022-10-20T06:32:46.933Z,64.19
2022-10-20T06:35:19.022Z,64.52
2022-10-20T06:37:50.955Z,64.38
2022-10-20T06:40:23.110Z,64.91
2022-10-20T06:45:28.505Z,65.05
2022-10-20T06:48:00.735Z,65.17
2022-10-20T06:50:34.048Z,65.56
2022-10-20T06:53:07.898Z,65.60
2022-10-20T06:55:39.981Z,65.57
2022-10-20T06:58:12.472Z,65.65
2022-10-20T07:00:44.412Z,65.84
2022-10-20T07:03:16.606Z,66.38
2022-10-20T07:05:50.109Z,66.78
2022-10-20T07:08:22.049Z,67.25
2022-10-20T07:11:02.784Z,67.55
2022-10-20T07:13:35.922Z,67.64
2022-10-20T07:16:09.915Z,67.69
2022-10-20T07:18:45.476Z,67.65
2022-10-20T07:21:19.044Z,68.12
2022-10-20T07:23:51.894Z,68.50
2022-10-20T07:26:25.849Z,68.34
2022-10-20T07:29:00.940Z,68.70
2022-10-20T07:31:34.509Z,69.01
2022-10-20T07:34:23.815Z,69.45
2022-10-20T07:36:58.651Z,70.03
2022-10-20T07:39:30.838Z,70.15
2022-10-20T07:42:02.756Z,71.11
2022-10-20T07:44:35.124Z,70.89
2022-10-20T07:47:07.317Z,71.33
2022-10-20T07:49:44.235Z,71.33
2022-10-20T07:52:17.099Z,71.19
2022-10-20T07:54:49.257Z,71.35
2022-10-20T07:57:21.132Z,71.62
2022-10-20T07:59:53.298Z,71.82
2022-10-20T08:02:25.214Z,72.15
2022-10-20T08:04:57.478Z,72.24
2022-10-20T08:07:29.401Z,71.50
2022-10-20T08:10:01.680Z,71.54
2022-10-20T08:12:34.074Z,71.06
2022-10-20T08:15:11.497Z,71.52
2022-10-20T08:17:46.206Z,71.46
2022-10-20T08:20:27.511Z,70.75
2022-10-20T08:22:59.349Z,71.17
2022-10-20T08:25:31.672Z,71.16
2022-10-20T08:28:04.006Z,70.36
2022-10-20T08:30:36.082Z,70.62
2022-10-20T08:33:07.979Z,70.14
2022-10-20T08:35:39.969Z,69.77
2022-10-20T08:38:11.840Z,69.12
2022-10-20T08:40:45.532Z,69.25
2022-10-20T08:43:21.309Z,68.71
2022-10-20T08:45:53.621Z,68.44
2022-10-20T08:48:28.747Z,67.11
2022-10-20T08:51:01.616Z,66.74
2022-10-20T08:53:40.796Z,66.76
2022-10-20T08:56:15.513Z,66.66
2022-10-20T08:58:46.491Z,66.58
2022-10-20T09:01:23.340Z,65.86
2022-10-20T09:04:00.719Z,65.22
2022-10-20T09:06:33.043Z,64.76
2022-10-20T09:09:05.162Z,64.47
2022-10-20T09:11:41.291Z,64.01
2022-10-20T09:14:13.513Z,63.97
2022-10-20T09:16:59.917Z,63.62
2022-10-20T09:19:32.741Z,63.12
2022-10-20T09:22:08.119Z,62.51
2022-10-20T09:24:40.881Z,62.41
2022-10-20T09:27:25.733Z,62.17
2022-10-20T09:29:57.813Z,61.90
2022-10-20T09:32:52.919Z,61.97
2022-10-20T09:35:31.050Z,61.54
2022-10-20T09:38:15.378Z,61.51
2022-10-20T09:40:55.983Z,60.88
2022-10-20T09:43:29.087Z,60.37
2022-10-20T09:46:09.917Z,59.60
2022-10-20T09:48:47.222Z,59.65
2022-10-20T09:51:22.403Z,59.69
2022-10-20T09:54:02.906Z,59.08
2022-10-20T09:56:36.961Z,59.11
2022-10-20T09:59:19.843Z,58.20
2022-10-20T10:02:00.082Z,57.54
2022-10-20T10:04:37.789Z,57.64
2022-10-20T10:07:32.322Z,56.87
2022-10-20T10:10:08.541Z,56.62
2022-10-20T10:12:40.955Z,56.00
2022-10-20T10:15:32.331Z,55.68
2022-10-20T10:18:15.853Z,55.82
2022-10-20T10:20:47.825Z,55.08
2022-10-20T10:23:24.018Z,55.67
2022-10-20T10:25:59.320Z,55.47
2022-10-20T10:28:41.977Z,55.19
2022-10-20T10:31:25.399Z,53.74
2022-10-20T10:34:21.359Z,53.48
2022-10-20T10:36:53.317Z,54.02
2022-10-20T10:39:25.333Z,53.85
2022-10-20T10:42:09.180Z,53.17
2022-10-20T10:44:53.810Z,52.70
2022-10-20T10:47:43.105Z,52.91
2022-10-20T10:50:30.793Z,52.85
2022-10-20T10:53:13.938Z,53.19
2022-10-20T10:55:53.889Z,52.66
2022-10-20T10:58:36.968Z,52.60
2022-10-20T11:01:22.899Z,52.70
2022-10-20T11:04:16.905Z,51.88
2022-10-20T11:06:58.021Z,52.25
2022-10-20T11:09:38.157Z,51.95
2022-10-20T11:12:28.400Z,51.68
2022-10-20T11:15:19.582Z,53.19
2022-10-20T11:18:05.111Z,52.31
2022-10-20T11:20:44.034Z,52.44
2022-10-20T11:26:20.008Z,51.84
2022-10-20T11:28:55.336Z,51.88
2022-10-20T11:31:35.381Z,51.56
2022-10-20T11:34:13.901Z,51.44
2022-10-20T11:36:48.744Z,52.04
2022-10-20T11:39:29.566Z,51.01
2022-10-20T11:42:14.242Z,51.56
2022-10-20T11:44:48.935Z,50.97
2022-10-20T11:47:25.598Z,50.19
2022-10-20T11:49:57.774Z,50.11
2022-10-20T11:52:59.098Z,50.68
2022-10-20T11:55:50.815Z,50.29
2022-10-20T11:58:53.962Z,49.80
2022-10-20T12:01:36.558Z,50.08
2022-10-20T12:04:41.219Z,49.79
2022-10-20T12:07:32.670Z,50.01
2022-10-20T12:10:29.695Z,49.75
2022-10-20T12:13:18.150Z,49.93
2022-10-20T12:15:52.954Z,49.76
2022-10-20T12:18:30.296Z,49.46
2022-10-20T12:21:05.429Z,50.19
2022-10-20T12:24:02.359Z,50.10
2022-10-20T12:27:06.188Z,49.42
2022-10-20T12:30:07.446Z,49.25
2022-10-20T12:33:17.494Z,49.10
2022-10-20T12:36:14.799Z,48.84
2022-10-20T12:38:48.556Z,48.78
2022-10-20T12:41:30.226Z,49.00
2022-10-20T12:44:05.820Z,48.24
2022-10-20T12:46:44.128Z,48.01
2022-10-20T12:49:28.424Z,48.75
2022-10-20T12:52:02.183Z,48.95
2022-10-20T12:54:39.115Z,48.89
2022-10-20T12:57:31.747Z,48.79
2022-10-20T13:00:05.735Z,49.29
2022-10-20T13:02:51.795Z,49.47
2022-10-20T13:05:45.843Z,49.58
2022-10-20T13:08:25.205Z,49.81
2022-10-20T13:11:18.686Z,49.69
2022-10-20T13:14:07.002Z,49.82
2022-10-20T13:16:40.145Z,50.58
2022-10-20T13:19:19.745Z,49.97
2022-10-20T13:21:52.518Z,49.75
2022-10-20T13:24:30.936Z,49.33
2022-10-20T13:27:10.093Z,49.58
2022-10-20T13:29:43.883Z,49.13
2022-10-20T13:32:23.375Z,49.21
2022-10-20T13:35:02.726Z,49.48
2022-10-20T13:37:49.059Z,49.52
2022-10-20T13:40:30.972Z,49.38
2022-10-20T13:43:19.822Z,49.74
2022-10-20T13:46:13.223Z,49.72
2022-10-20T13:48:59.418Z,50.14
2022-10-20T13:51:35.133Z,50.33
2022-10-20T13:54:08.514Z,50.73
2022-10-20T13:56:47.387Z,50.83
2022-10-20T13:59:27.482Z,50.79
2022-10-20T14:02:03.875Z,50.89
2022-10-20T14:04:37.993Z,51.31
2022-10-20T14:07:16.066Z,51.77
2022-10-20T14:09:57.640Z,52.36
2022-10-20T14:12:29.802Z,51.54
2022-10-20T14:15:02.759Z,50.84
2022-10-20T14:17:38.489Z,50.66
2022-10-20T14:20:22.199Z,50.21
2022-10-20T14:22:55.110Z,50.28
2022-10-20T14:25:28.779Z,51.11
2022-10-20T14:28:05.223Z,50.87
2022-10-20T14:30:45.303Z,51.14
2022-10-20T14:33:24.043Z,51.16
2022-10-20T14:35:58.896Z,50.97
2022-10-20T14:38:35.557Z,51.52
2022-10-20T14:41:09.723Z,51.30
2022-10-20T14:43:44.571Z,52.54
2022-10-20T14:46:24.307Z,52.54
2022-10-20T14:48:56.702Z,52.63
2022-10-20T14:51:37.297Z,53.34
2022-10-20T14:54:28.324Z,52.74
2022-10-20T14:57:02.013Z,53.14
2022-10-20T14:59:38.488Z,53.17
2022-10-20T15:02:18.343Z,53.08
2022-10-20T15:04:52.038Z,53.15
2022-10-20T15:07:28.133Z,53.60
2022-10-20T15:10:07.483Z,53.75
2022-10-20T15:12:45.783Z,53.67
2022-10-20T15:15:24.960Z,53.89
2022-10-20T15:18:15.077Z,54.21
2022-10-20T15:20:47.941Z,54.17
2022-10-20T15:23:21.436Z,54.64
2022-10-20T15:25:57.074Z,55.46
2022-10-20T15:28:45.035Z,55.55
2022-10-20T15:31:23.876Z,56.19
2022-10-20T15:33:57.035Z,56.15
2022-10-20T15:36:33.726Z,56.23
2022-10-20T15:39:06.705Z,56.85
2022-10-20T15:41:39.530Z,56.70
2022-10-20T15:44:16.934Z,57.00
2022-10-20T15:46:50.805Z,57.19
2022-10-20T15:49:23.966Z,57.08
2022-10-20T15:51:56.522Z,57.38
2022-10-20T15:54:28.710Z,57.44
2022-10-20T15:57:00.763Z,57.64
2022-10-20T15:59:32.761Z,57.86
2022-10-20T16:02:04.795Z,58.13
2022-10-20T16:04:36.985Z,58.53
2022-10-20T16:07:09.254Z,58.44
2022-10-20T16:09:41.477Z,58.75
2022-10-20T16:12:13.761Z,58.87
2022-10-20T16:14:45.970Z,59.33
2022-10-20T16:17:18.278Z,59.44
2022-10-20T16:19:50.475Z,59.38
2022-10-20T16:22:23.134Z,59.56
2022-10-20T16:24:56.481Z,59.48
2022-10-20T16:27:28.878Z,59.84
2022-10-20T16:30:01.271Z,59.88
2022-10-20T16:32:35.351Z,60.21
2022-10-20T16:35:09.115Z,60.28
2022-10-20T16:37:41.324Z,60.30
2022-10-20T16:40:19.550Z,60.51
2022-10-20T16:42:51.634Z,60.79
2022-10-20T16:48:00.932Z,61.15
2022-10-20T16:50:33.385Z,61.43
2022-10-20T16:53:05.808Z,61.40
2022-10-20T16:55:37.853Z,61.62
2022-10-20T16:58:09.865Z,61.76
2022-10-20T17:00:43.260Z,61.80
2022-10-20T17:03:20.121Z,61.87
2022-10-20T17:05:58.585Z,62.17
2022-10-20T17:08:32.540Z,62.15
2022-10-20T17:11:07.898Z,62.13
2022-10-20T17:13:41.501Z,62.38
2022-10-20T17:16:16.053Z,62.31
2022-10-20T17:18:48.672Z,62.62
2022-10-20T17:21:21.041Z,62.58
2022-10-20T17:23:53.311Z,62.51
2022-10-20T17:26:27.456Z,62.80
2022-10-20T17:29:01.363Z,62.94
2022-10-20T17:31:36.499Z,62.76
2022-10-20T17:34:09.915Z,63.22
2022-10-20T17:36:43.600Z,63.61
2022-10-20T17:39:18.097Z,64.02
2022-10-20T17:41:50.563Z,64.40
2022-10-20T17:44:22.671Z,65.13
2022-10-20T17:46:55.206Z,64.98
2022-10-20T17:49:28.029Z,65.25
2022-10-20T17:51:59.979Z,65.31
2022-10-20T17:54:32.141Z,65.06
2022-10-20T17:57:04.230Z,65.27
2022-10-20T17:59:47.292Z,65.36
2022-10-20T18:02:25.520Z,65.70
2022-10-20T18:04:57.545Z,65.54
2022-10-20T18:07:29.912Z,65.48
2022-10-20T18:10:02.760Z,65.45
2022-10-20T18:12:35.507Z,65.79
2022-10-20T18:15:08.934Z,65.87
2022-10-20T18:17:41.371Z,65.93
2022-10-20T18:20:13.917Z,65.82
2022-10-20T18:22:46.371Z,65.87
2022-10-20T18:25:18.873Z,65.90
2022-10-20T18:27:51.012Z,65.75
2022-10-20T18:30:23.227Z,66.19
2022-10-20T18:32:55.230Z,66.39
2022-10-20T18:35:28.210Z,66.26
2022-10-20T18:38:00.271Z,66.53
2022-10-20T18:40:32.716Z,66.73
2022-10-20T18:43:04.847Z,66.96
2022-10-20T18:45:37.107Z,66.82
2022-10-20T18:48:09.972Z,66.69
2022-10-20T18:50:43.924Z,66.90
2022-10-20T18:53:16.284Z,67.14
2022-10-20T18:55:48.392Z,66.88
2022-10-20T18:58:20.431Z,66.65
2022-10-20T19:01:01.667Z,66.89
2022-10-20T19:03:34.577Z,66.59
2022-10-20T19:06:08.703Z,66.57
2022-10-20T19:08:41.922Z,66.48
2022-10-20T19:11:16.891Z,66.51
2022-10-20T19:13:49.500Z,66.36
2022-10-20T19:16:23.796Z,66.26
2022-10-20T19:18:57.879Z,66.62
2022-10-20T19:21:31.564Z,66.51
2022-10-20T19:24:06.203Z,66.49
2022-10-20T19:26:40.388Z,66.60
2022-10-20T19:29:14.099Z,66.69
2022-10-20T19:31:48.811Z,66.48
2022-10-20T19:34:23.360Z,66.47
2022-10-20T19:36:56.966Z,66.49
2022-10-20T19:39:32.221Z,66.44
2022-10-20T19:42:07.110Z,66.45
2022-10-20T19:44:39.920Z,66.34
2022-10-20T19:47:12.855Z,66.28
2022-10-20T19:49:45.425Z,66.92
2022-10-20T19:52:19.179Z,66.67
2022-10-20T19:54:51.438Z,66.36
2022-10-20T19:57:29.489Z,66.33
2022-10-20T20:00:03.721Z,66.52
2022-10-20T20:02:39.655Z,66.48
2022-10-20T20:05:13.618Z,66.71
2022-10-20T20:07:48.119Z,66.75
2022-10-20T20:10:27.154Z,66.69
2022-10-20T20:13:01.950Z,66.31
2022-10-20T20:15:37.427Z,66.22
2022-10-20T20:18:12.243Z,66.11
2022-10-20T20:20:46.860Z,66.30
2022-10-20T20:23:29.801Z,66.26
2022-10-20T20:26:10.411Z,66.12
2022-10-20T20:28:44.790Z,66.29
2022-10-20T20:31:17.633Z,66.03
2022-10-20T20:33:50.615Z,66.26
2022-10-20T20:36:23.041Z,66.27
2022-10-20T20:38:57.376Z,66.69
2022-10-20T20:41:31.911Z,67.24
2022-10-20T20:44:08.010Z,66.89
2022-10-20T20:46:41.161Z,66.56
2022-10-20T20:49:14.198Z,66.43
2022-10-20T20:51:46.751Z,66.32
2022-10-20T20:54:19.338Z,66.23
2022-10-20T20:56:51.522Z,66.00
2022-10-20T20:59:23.550Z,66.06
2022-10-20T21:01:55.538Z,66.54
2022-10-20T21:04:30.658Z,66.59
2022-10-20T21:07:03.241Z,66.59
2022-10-20T21:09:35.901Z,66.29
2022-10-20T21:12:08.254Z,66.05
2022-10-20T21:14:40.267Z,66.06
2022-10-20T21:17:12.549Z,65.95
2022-10-20T21:19:44.580Z,65.90
2022-10-20T21:22:17.032Z,66.03
2022-10-20T21:24:49.105Z,66.18
2022-10-20T21:27:21.091Z,66.07
2022-10-20T21:29:53.157Z,66.00
2022-10-20T21:32:27.351Z,65.84
2022-10-20T21:34:59.485Z,65.73
2022-10-20T21:37:31.998Z,65.69
2022-10-20T21:40:04.151Z,65.76
2022-10-20T21:42:36.699Z,65.92
2022-10-20T21:45:10.037Z,66.11
2022-10-20T21:47:43.851Z,65.86
2022-10-20T21:50:16.038Z,66.27
2022-10-20T21:52:51.967Z,66.20
2022-10-20T21:55:24.309Z,65.94
2022-10-20T21:57:56.484Z,66.32
2022-10-20T22:00:28.514Z,66.13
2022-10-20T22:03:00.462Z,66.17
2022-10-20T22:05:32.542Z,65.93
2022-10-20T22:08:04.513Z,66.22
2022-10-20T22:10:38.903Z,66.14
2022-10-20T22:13:11.066Z,65.99
2022-10-20T22:15:43.093Z,66.02
2022-10-20T22:18:15.395Z,65.97
2022-10-20T22:20:47.429Z,66.14
2022-10-20T22:23:19.666Z,65.95
2022-10-20T22:25:55.420Z,65.90
2022-10-20T22:28:27.451Z,66.00
2022-10-20T22:33:38.093Z,66.00
2022-10-20T22:36:11.008Z,66.08
2022-10-20T22:38:42.901Z,66.08
2022-10-20T22:41:15.372Z,66.25
2022-10-20T22:43:47.490Z,66.32
2022-10-20T22:46:19.862Z,66.32
2022-10-20T22:48:51.948Z,66.26
2022-10-20T22:51:24.215Z,66.52
2022-10-20T22:53:56.429Z,66.43
2022-10-20T22:56:28.427Z,66.30
2022-10-20T22:59:00.793Z,66.38
2022-10-20T23:01:32.915Z,66.43
2022-10-20T23:04:04.948Z,66.35
2022-10-20T23:06:37.215Z,66.20
2022-10-20T23:09:10.751Z,66.19
2022-10-20T23:11:42.844Z,66.36
2022-10-20T23:14:16.894Z,66.07
2022-10-20T23:16:49.599Z,66.29
2022-10-20T23:19:21.734Z,66.27
2022-10-20T23:21:54.201Z,66.22
2022-10-20T23:24:26.394Z,66.34
2022-10-20T23:26:58.852Z,66.22
2022-10-20T23:29:31.054Z,66.15
2022-10-20T23:32:03.315Z,66.34
2022-10-20T23:34:35.480Z,66.24
2022-10-20T23:37:07.686Z,66.13
2022-10-20T23:39:39.639Z,65.82
2022-10-20T23:42:11.763Z,65.90
2022-10-20T23:44:43.762Z,65.57
2022-10-20T23:47:16.479Z,65.83
2022-10-20T23:49:50.787Z,65.54
2022-10-20T23:52:22.827Z,64.99
2022-10-20T23:54:55.066Z,65.03
2022-10-20T23:57:27.054Z,64.96
2022-10-20T23:59:59.147Z,65.10
